Time,TemperatureF,DewpointF,PressureIn,WindDirection,WindDirectionDegrees,WindSpeedMPH,WindSpeedGustMPH,Humidity,HourlyPrecipIn,Conditions,Clouds,dailyrainin,SoftwareType,DateUTC
2013-03-12 00:00:00,30.2,23.5,26.79,SE,133,0.0,0.0,76,0.00,,,0.00,Wunderground v.1.15,2013-03-12 05:00:00,
2013-03-12 00:07:00,30.1,23.4,26.79,SE,133,0.0,0.0,76,0.00,,,0.00,Wunderground v.1.15,2013-03-12 05:07:00,
2013-03-12 00:13:00,30.0,23.7,26.79,SE,133,0.0,0.0,77,0.00,,,0.00,Wunderground v.1.15,2013-03-12 05:13:00,
2013-03-12 00:18:00,29.9,23.6,26.79,SE,133,0.0,0.0,77,0.00,,,0.00,Wunderground v.1.15,2013-03-12 05:18:00,
2013-03-12 00:24:00,29.8,23.5,26.79,SE,133,0.0,0.0,77,0.00,,,0.00,Wunderground v.1.15,2013-03-12 05:24:00,
2013-03-12 00:30:00,29.7,23.4,26.79,SE,133,0.0,0.0,77,0.00,,,0.00,Wunderground v.1.15,2013-03-12 05:30:00,
2013-03-12 00:36:00,29.6,23.6,26.79,SE,133,0.0,0.0,78,0.00,,,0.00,Wunderground v.1.15,2013-03-12 05:36:00,
2013-03-12 00:42:00,29.5,23.5,26.79,SE,133,0.0,0.0,78,0.00,,,0.00,Wunderground v.1.15,2013-03-12 05:42:00,
2013-03-12 00:47:00,29.4,23.4,26.79,SE,133,0.0,0.0,78,0.00,,,0.00,Wunderground v.1.15,2013-03-12 05:47:00,
2013-03-12 00:53:00,29.3,23.6,26.79,SE,133,0.0,0.0,79,0.00,,,0.00,Wunderground v.1.15,2013-03-12 05:53:00,
2013-03-12 00:59:00,29.2,23.5,26.79,SE,133,0.0,0.0,79,0.00,,,0.00,Wunderground v.1.15,2013-03-12 05:59:00,
2013-03-12 01:05:00,29.0,23.3,26.79,SE,133,0.0,0.0,79,0.00,,,0.00,Wunderground v.1.15,2013-03-12 06:05:00,
2013-03-12 01:10:00,28.9,23.2,26.79,SE,133,0.0,0.0,79,0.00,,,0.00,Wunderground v.1.15,2013-03-12 06:10:00,
2013-03-12 01:17:00,28.8,23.1,26.79,SE,133,0.0,0.0,79,0.00,,,0.00,Wunderground v.1.15,2013-03-12 06:17:00,
2013-03-12 01:23:00,28.8,23.1,26.79,SE,133,0.0,0.0,79,0.00,,,0.00,Wunderground v.1.15,2013-03-12 06:23:00,
2013-03-12 01:29:00,28.7,23.0,26.79,SE,133,0.0,0.0,79,0.00,,,0.00,Wunderground v.1.15,2013-03-12 06:29:00,
2013-03-12 01:35:00,28.5,23.1,26.79,SE,133,0.0,0.0,80,0.00,,,0.00,Wunderground v.1.15,2013-03-12 06:35:00,
2013-03-12 01:40:00,28.5,23.1,26.79,SE,133,0.0,0.0,80,0.00,,,0.00,Wunderground v.1.15,2013-03-12 06:40:00,
2013-03-12 01:46:00,28.4,23.0,26.79,SE,133,0.0,0.0,80,0.00,,,0.00,Wunderground v.1.15,2013-03-12 06:46:00,
2013-03-12 01:51:00,28.3,23.2,26.79,SE,133,0.0,0.0,81,0.00,,,0.00,Wunderground v.1.15,2013-03-12 06:51:00,
2013-03-12 01:57:00,28.3,23.2,26.79,SE,133,0.0,0.0,81,0.00,,,0.00,Wunderground v.1.15,2013-03-12 06:57:00,
2013-03-12 02:02:00,28.3,23.2,26.79,SE,133,0.0,0.0,81,0.00,,,0.00,Wunderground v.1.15,2013-03-12 07:02:00,
2013-03-12 02:07:00,28.3,23.5,26.79,SE,133,0.0,0.0,82,0.00,,,0.00,Wunderground v.1.15,2013-03-12 07:07:00,
2013-03-12 02:12:00,28.2,23.4,26.79,SE,133,0.0,0.0,82,0.00,,,0.00,Wunderground v.1.15,2013-03-12 07:12:00,
2013-03-12 02:17:00,28.2,23.4,26.79,SE,133,0.0,0.0,82,0.00,,,0.00,Wunderground v.1.15,2013-03-12 07:17:00,
2013-03-12 02:22:00,28.1,23.3,26.79,SE,133,0.0,0.0,82,0.00,,,0.00,Wunderground v.1.15,2013-03-12 07:22:00,
2013-03-12 02:27:00,28.1,23.3,26.79,SE,133,0.0,0.0,82,0.00,,,0.00,Wunderground v.1.15,2013-03-12 07:27:00,
2013-03-12 02:32:00,28.0,23.2,26.79,SE,133,0.0,0.0,82,0.00,,,0.00,Wunderground v.1.15,2013-03-12 07:32:00,
2013-03-12 02:37:00,28.0,23.5,26.79,SE,133,0.0,0.0,83,0.00,,,0.00,Wunderground v.1.15,2013-03-12 07:37:00,
2013-03-12 02:42:00,28.0,23.5,26.79,SE,133,0.0,0.0,83,0.00,,,0.00,Wunderground v.1.15,2013-03-12 07:42:00,
2013-03-12 02:47:00,27.9,23.4,26.79,SE,133,0.0,0.0,83,0.00,,,0.00,Wunderground v.1.15,2013-03-12 07:47:00,
2013-03-12 02:52:00,28.0,23.5,26.79,SE,133,0.0,0.0,83,0.00,,,0.00,Wunderground v.1.15,2013-03-12 07:52:00,
2013-03-12 02:57:00,28.0,23.5,26.79,SE,133,0.0,0.0,83,0.00,,,0.00,Wunderground v.1.15,2013-03-12 07:57:00,
2013-03-12 03:02:00,28.0,23.8,26.79,SE,133,0.0,0.0,84,0.00,,,0.00,Wunderground v.1.15,2013-03-12 08:02:00,
2013-03-12 03:07:00,28.1,23.9,26.79,SE,133,0.0,0.0,84,0.00,,,0.00,Wunderground v.1.15,2013-03-12 08:07:00,
2013-03-12 03:12:00,28.1,24.2,26.79,SE,133,0.0,0.0,85,0.00,,,0.00,Wunderground v.1.15,2013-03-12 08:12:00,
2013-03-12 03:17:00,28.3,24.4,26.79,SE,133,0.0,0.0,85,0.00,,,0.00,Wunderground v.1.15,2013-03-12 08:17:00,
2013-03-12 03:22:00,28.3,24.4,26.79,SE,133,0.0,0.0,85,0.00,,,0.00,Wunderground v.1.15,2013-03-12 08:22:00,
2013-03-12 03:27:00,28.4,24.5,26.79,SE,133,0.0,0.0,85,0.00,,,0.00,Wunderground v.1.15,2013-03-12 08:27:00,
2013-03-12 03:32:00,28.5,24.6,26.79,SE,133,0.0,0.0,85,0.00,,,0.00,Wunderground v.1.15,2013-03-12 08:32:00,
2013-03-12 03:37:00,28.6,24.9,26.79,SE,133,0.0,0.0,86,0.00,,,0.00,Wunderground v.1.15,2013-03-12 08:37:00,
2013-03-12 03:42:00,28.7,25.0,26.79,SE,133,0.0,0.0,86,0.00,,,0.00,Wunderground v.1.15,2013-03-12 08:42:00,
2013-03-12 03:47:00,28.8,25.1,26.79,SE,133,0.0,0.0,86,0.00,,,0.00,Wunderground v.1.15,2013-03-12 08:47:00,
2013-03-12 03:52:00,28.9,25.2,26.79,SE,133,0.0,0.0,86,0.00,,,0.00,Wunderground v.1.15,2013-03-12 08:52:00,
2013-03-12 03:57:00,29.1,25.7,26.79,SE,133,0.0,0.0,87,0.00,,,0.00,Wunderground v.1.15,2013-03-12 08:57:00,
2013-03-12 04:02:00,29.2,25.8,26.79,SE,133,0.0,0.0,87,0.00,,,0.00,Wunderground v.1.15,2013-03-12 09:02:00,
2013-03-12 04:08:00,29.3,25.9,26.79,SE,133,0.0,0.0,87,0.00,,,0.00,Wunderground v.1.15,2013-03-12 09:08:00,
2013-03-12 04:13:00,29.4,26.0,26.79,SE,133,0.0,0.0,87,0.00,,,0.00,Wunderground v.1.15,2013-03-12 09:13:00,
2013-03-12 04:18:00,29.5,26.1,26.79,SE,133,0.0,0.0,87,0.00,,,0.00,Wunderground v.1.15,2013-03-12 09:18:00,
2013-03-12 04:23:00,29.6,26.2,26.79,SE,133,0.0,0.0,87,0.00,,,0.00,Wunderground v.1.15,2013-03-12 09:23:00,
2013-03-12 04:28:00,29.7,26.3,26.79,SE,133,0.0,0.0,87,0.00,,,0.00,Wunderground v.1.15,2013-03-12 09:28:00,
2013-03-12 04:33:00,29.8,26.4,26.79,SE,133,0.0,0.0,87,0.00,,,0.00,Wunderground v.1.15,2013-03-12 09:33:00,
2013-03-12 04:38:00,29.8,26.4,26.79,SE,133,0.0,0.0,87,0.00,,,0.00,Wunderground v.1.15,2013-03-12 09:38:00,
2013-03-12 04:43:00,29.9,26.5,26.79,SE,133,0.0,0.0,87,0.00,,,0.00,Wunderground v.1.15,2013-03-12 09:43:00,
2013-03-12 04:48:00,30.0,26.6,26.79,SE,133,0.0,0.0,87,0.00,,,0.00,Wunderground v.1.15,2013-03-12 09:48:00,
2013-03-12 04:53:00,30.1,26.7,26.79,SE,133,0.0,0.0,87,0.00,,,0.00,Wunderground v.1.15,2013-03-12 09:53:00,
2013-03-12 04:58:00,30.2,26.8,26.79,SE,133,0.0,0.0,87,0.00,,,0.00,Wunderground v.1.15,2013-03-12 09:58:00,
2013-03-12 05:03:00,30.3,26.9,26.79,SE,133,0.0,0.0,87,0.00,,,0.00,Wunderground v.1.15,2013-03-12 10:03:00,
2013-03-12 05:08:00,30.5,27.1,26.79,SE,133,0.0,0.0,87,0.00,,,0.00,Wunderground v.1.15,2013-03-12 10:08:00,
2013-03-12 05:13:00,30.6,27.2,25.02,SE,133,0.0,0.0,87,0.00,,,0.00,Wunderground v.1.15,2013-03-12 10:13:00,
2013-03-12 05:18:00,30.7,27.3,25.02,SE,133,0.0,0.0,87,0.00,,,0.00,Wunderground v.1.15,2013-03-12 10:18:00,
2013-03-12 05:23:00,30.9,27.5,25.02,SE,133,0.0,0.0,87,0.00,,,0.00,Wunderground v.1.15,2013-03-12 10:23:00,
2013-03-12 05:28:00,31.0,27.6,25.02,SE,133,0.0,0.0,87,0.00,,,0.00,Wunderground v.1.15,2013-03-12 10:28:00,
2013-03-12 05:33:00,31.2,27.8,24.61,SE,133,0.0,0.0,87,0.00,,,0.00,Wunderground v.1.15,2013-03-12 10:33:00,
2013-03-12 05:38:00,31.3,27.9,24.45,SE,133,0.0,0.0,87,0.00,,,0.00,Wunderground v.1.15,2013-03-12 10:38:00,
2013-03-12 05:43:00,31.5,28.4,24.44,SE,133,0.0,0.0,88,0.00,,,0.00,Wunderground v.1.15,2013-03-12 10:43:00,
2013-03-12 05:48:00,31.7,28.6,24.45,SE,133,0.0,0.0,88,0.00,,,0.00,Wunderground v.1.15,2013-03-12 10:48:00,
2013-03-12 05:53:00,31.8,28.7,24.44,SE,133,0.0,0.0,88,0.00,,,0.00,Wunderground v.1.15,2013-03-12 10:53:00,
2013-03-12 05:58:00,32.0,28.8,24.44,SE,133,0.0,0.0,88,0.00,,,0.00,Wunderground v.1.15,2013-03-12 10:58:00,
2013-03-12 06:03:00,32.2,29.0,24.44,SE,133,0.0,0.0,88,0.00,,,0.00,Wunderground v.1.15,2013-03-12 11:03:00,
2013-03-12 06:08:00,32.4,29.2,24.44,SE,133,0.0,0.0,88,0.00,,,0.00,Wunderground v.1.15,2013-03-12 11:08:00,
2013-03-12 06:13:00,32.5,29.1,24.44,SE,133,0.0,0.0,87,0.00,,,0.00,Wunderground v.1.15,2013-03-12 11:13:00,
2013-03-12 06:18:00,32.7,29.5,24.45,SE,133,0.0,0.0,88,0.00,,,0.00,Wunderground v.1.15,2013-03-12 11:18:00,
2013-03-12 06:23:00,32.9,29.7,24.44,SE,133,0.0,0.0,88,0.00,,,0.00,Wunderground v.1.15,2013-03-12 11:23:00,
2013-03-12 06:28:00,33.1,29.7,24.47,SE,133,0.0,0.0,87,0.00,,,0.00,Wunderground v.1.15,2013-03-12 11:28:00,
2013-03-12 06:33:00,33.3,29.8,24.41,SE,133,0.0,0.0,87,0.00,,,0.00,Wunderground v.1.15,2013-03-12 11:33:00,
2013-03-12 06:45:00,33.5,30.0,24.37,SE,133,0.0,0.0,87,0.00,,,0.00,Wunderground v.1.15,2013-03-12 11:45:00,
2013-03-12 06:50:00,33.6,29.9,24.32,SE,133,0.0,0.0,86,0.00,,,0.00,Wunderground v.1.15,2013-03-12 11:50:00,
2013-03-12 06:55:00,33.7,30.0,24.32,SE,133,0.0,0.0,86,0.00,,,0.00,Wunderground v.1.15,2013-03-12 11:55:00,
2013-03-12 07:00:00,33.8,30.1,24.32,SE,133,0.0,0.0,86,0.00,,,0.00,Wunderground v.1.15,2013-03-12 12:00:00,
2013-03-12 07:05:00,33.8,30.1,24.32,SE,133,0.0,0.0,86,0.00,,,0.00,Wunderground v.1.15,2013-03-12 12:05:00,
2013-03-12 07:10:00,33.9,29.9,24.62,SE,133,0.0,0.0,85,0.00,,,0.00,Wunderground v.1.15,2013-03-12 12:10:00,
2013-03-12 07:15:00,34.0,30.0,24.62,SE,133,0.0,0.0,85,0.00,,,0.00,Wunderground v.1.15,2013-03-12 12:15:00,
2013-03-12 07:20:00,34.1,30.1,24.62,SE,133,0.0,0.0,85,0.00,,,0.00,Wunderground v.1.15,2013-03-12 12:20:00,
2013-03-12 07:25:00,34.2,30.2,24.62,SE,133,0.0,0.0,85,0.00,,,0.00,Wunderground v.1.15,2013-03-12 12:25:00,
2013-03-12 07:30:00,34.4,30.4,24.45,SE,133,0.0,0.0,85,0.00,,,0.00,Wunderground v.1.15,2013-03-12 12:30:00,
2013-03-12 07:35:00,34.4,30.4,24.45,SE,133,0.0,0.0,85,0.00,,,0.00,Wunderground v.1.15,2013-03-12 12:35:00,
2013-03-12 07:40:00,34.4,30.1,24.48,SE,133,0.0,0.0,84,0.00,,,0.00,Wunderground v.1.15,2013-03-12 12:40:00,
2013-03-12 07:45:00,34.5,30.2,24.48,SE,133,0.0,0.0,84,0.00,,,0.00,Wunderground v.1.15,2013-03-12 12:45:00,
2013-03-12 07:50:00,34.7,30.4,24.48,SE,133,0.0,0.0,84,0.00,,,0.00,Wunderground v.1.15,2013-03-12 12:50:00,
2013-03-12 07:55:00,34.7,30.1,24.48,SE,133,0.0,0.0,83,0.00,,,0.00,Wunderground v.1.15,2013-03-12 12:55:00,
2013-03-12 08:00:00,34.8,30.2,24.48,SE,133,0.0,0.0,83,0.00,,,0.00,Wunderground v.1.15,2013-03-12 13:00:00,
2013-03-12 08:05:00,34.9,30.3,24.48,SE,133,0.0,0.0,83,0.00,,,0.00,Wunderground v.1.15,2013-03-12 13:05:00,
2013-03-12 08:10:00,35.0,30.4,24.48,SE,133,0.0,0.0,83,0.00,,,0.00,Wunderground v.1.15,2013-03-12 13:10:00,
2013-03-12 08:15:00,35.1,30.5,24.48,SE,133,0.0,0.0,83,0.00,,,0.00,Wunderground v.1.15,2013-03-12 13:15:00,
2013-03-12 08:20:00,35.3,30.7,24.48,SE,133,0.0,0.0,83,0.00,,,0.00,Wunderground v.1.15,2013-03-12 13:20:00,
2013-03-12 08:25:00,35.4,30.5,24.48,SE,133,0.0,0.0,82,0.00,,,0.00,Wunderground v.1.15,2013-03-12 13:25:00,
2013-03-12 08:30:00,35.5,30.5,24.48,SE,133,0.0,0.0,82,0.00,,,0.00,Wunderground v.1.15,2013-03-12 13:30:00,
2013-03-12 08:35:00,35.7,30.7,24.48,SE,133,0.0,0.0,82,0.00,,,0.00,Wunderground v.1.15,2013-03-12 13:35:00,
2013-03-12 08:40:00,35.9,30.9,24.48,SE,133,0.0,0.0,82,0.00,,,0.00,Wunderground v.1.15,2013-03-12 13:40:00,
2013-03-12 08:45:00,36.1,31.1,24.48,SE,133,0.0,0.0,82,0.00,,,0.00,Wunderground v.1.15,2013-03-12 13:45:00,
2013-03-12 08:50:00,36.3,31.3,24.48,SE,133,0.0,0.0,82,0.00,,,0.00,Wunderground v.1.15,2013-03-12 13:50:00,
2013-03-12 08:55:00,36.5,31.2,24.48,SE,133,0.0,0.0,81,0.00,,,0.00,Wunderground v.1.15,2013-03-12 13:55:00,
2013-03-12 09:00:00,36.6,31.3,24.48,SE,133,0.0,0.0,81,0.00,,,0.00,Wunderground v.1.15,2013-03-12 14:00:00,
2013-03-12 09:05:00,36.8,31.5,24.48,SE,133,0.0,0.0,81,0.00,,,0.00,Wunderground v.1.15,2013-03-12 14:05:00,
2013-03-12 09:10:00,37.1,31.8,24.48,SE,132,0.0,0.0,81,0.00,,,0.00,Wunderground v.1.15,2013-03-12 14:10:00,
2013-03-12 09:15:00,37.6,32.0,24.48,ESE,122,0.0,1.0,80,0.00,,,0.00,Wunderground v.1.15,2013-03-12 14:15:00,
2013-03-12 09:20:00,38.1,31.5,24.48,East,93,0.0,0.0,77,0.00,,,0.00,Wunderground v.1.15,2013-03-12 14:20:00,
2013-03-12 09:25:00,38.7,31.8,24.48,East,93,0.0,1.0,76,0.00,,,0.00,Wunderground v.1.15,2013-03-12 14:25:00,
2013-03-12 09:30:00,39.3,31.7,24.48,East,92,0.0,0.0,74,0.00,,,0.00,Wunderground v.1.15,2013-03-12 14:30:00,
2013-03-12 09:35:00,39.7,31.8,24.48,East,93,0.0,1.0,73,0.00,,,0.00,Wunderground v.1.15,2013-03-12 14:35:00,
2013-03-12 09:40:00,40.8,32.1,24.48,NW,319,0.0,0.0,71,0.00,,,0.00,Wunderground v.1.15,2013-03-12 14:40:00,
2013-03-12 09:45:00,41.7,31.5,24.48,NW,319,0.0,1.0,67,0.00,,,0.00,Wunderground v.1.15,2013-03-12 14:45:00,
2013-03-12 09:50:00,42.4,31.8,24.48,NW,319,0.0,0.0,66,0.00,,,0.00,Wunderground v.1.15,2013-03-12 14:50:00,
2013-03-12 09:55:00,42.9,31.9,24.48,NW,313,0.0,1.0,65,0.00,,,0.00,Wunderground v.1.15,2013-03-12 14:55:00,
2013-03-12 10:00:00,43.3,31.9,24.48,NW,313,0.0,0.0,64,0.00,,,0.00,Wunderground v.1.15,2013-03-12 15:00:00,
2013-03-12 10:05:00,43.5,31.3,24.48,NW,313,0.0,0.0,62,0.00,,,0.00,Wunderground v.1.15,2013-03-12 15:05:00,
2013-03-12 10:10:00,43.7,31.5,24.48,NW,313,0.0,0.0,62,0.00,,,0.00,Wunderground v.1.15,2013-03-12 15:10:00,
2013-03-12 10:15:00,44.0,31.8,24.48,NW,313,0.0,0.0,62,0.00,,,0.00,Wunderground v.1.15,2013-03-12 15:15:00,
2013-03-12 10:20:00,44.3,32.1,24.48,NW,313,0.0,0.0,62,0.00,,,0.00,Wunderground v.1.15,2013-03-12 15:20:00,
2013-03-12 10:25:00,44.5,31.9,24.48,NW,313,0.0,0.0,61,0.00,,,0.00,Wunderground v.1.15,2013-03-12 15:25:00,
2013-03-12 10:30:00,44.6,32.4,24.48,NW,313,0.0,0.0,62,0.00,,,0.00,Wunderground v.1.15,2013-03-12 15:30:00,
2013-03-12 10:35:00,44.8,32.6,24.48,NW,313,0.0,1.0,62,0.00,,,0.00,Wunderground v.1.15,2013-03-12 15:35:00,
2013-03-12 10:40:00,44.9,32.3,24.48,NW,313,0.0,0.0,61,0.00,,,0.00,Wunderground v.1.15,2013-03-12 15:40:00,
2013-03-12 10:45:00,45.6,33.3,24.48,NW,320,0.0,0.0,62,0.00,,,0.00,Wunderground v.1.15,2013-03-12 15:45:00,
2013-03-12 10:50:00,46.8,33.6,24.48,NW,319,0.0,0.0,60,0.00,,,0.00,Wunderground v.1.15,2013-03-12 15:50:00,
2013-03-12 10:55:00,47.3,33.7,24.48,NW,319,0.0,1.0,59,0.00,,,0.00,Wunderground v.1.15,2013-03-12 15:55:00,
2013-03-12 11:00:00,48.3,33.8,24.48,NW,320,0.0,0.0,57,0.00,,,0.00,Wunderground v.1.15,2013-03-12 16:00:00,
2013-03-12 11:05:00,49.9,34.4,24.48,NW,309,0.0,2.0,55,0.00,,,0.00,Wunderground v.1.15,2013-03-12 16:05:00,
2013-03-12 11:10:00,50.3,32.8,24.48,North,349,0.0,0.0,51,0.00,,,0.00,Wunderground v.1.15,2013-03-12 16:10:00,
2013-03-12 11:15:00,50.0,33.1,24.48,North,349,0.0,1.0,52,0.00,,,0.00,Wunderground v.1.15,2013-03-12 16:15:00,
2013-03-12 11:20:00,50.3,32.8,24.48,North,349,0.0,0.0,51,0.00,,,0.00,Wunderground v.1.15,2013-03-12 16:20:00,
2013-03-12 11:25:00,51.6,33.6,24.48,North,349,0.0,1.0,50,0.00,,,0.00,Wunderground v.1.15,2013-03-12 16:25:00,
2013-03-12 11:30:00,52.8,33.6,24.48,South,190,0.0,1.0,48,0.00,,,0.00,Wunderground v.1.15,2013-03-12 16:30:00,
2013-03-12 11:35:00,53.6,34.9,24.48,SSE,161,0.0,1.0,49,0.00,,,0.00,Wunderground v.1.15,2013-03-12 16:35:00,
2013-03-12 11:40:00,54.6,34.2,24.48,SSE,161,0.0,1.0,46,0.00,,,0.00,Wunderground v.1.15,2013-03-12 16:40:00,
2013-03-12 11:45:00,55.5,35.0,24.48,NNE,14,1.0,2.0,46,0.00,,,0.00,Wunderground v.1.15,2013-03-12 16:45:00,
2013-03-12 11:50:00,55.7,34.1,24.48,NE,41,1.0,1.0,44,0.00,,,0.00,Wunderground v.1.15,2013-03-12 16:50:00,
2013-03-12 11:55:00,56.4,33.6,24.48,NNW,338,0.0,2.0,42,0.00,,,0.00,Wunderground v.1.15,2013-03-12 16:55:00,
2013-03-12 12:00:00,56.2,33.4,24.48,NNW,332,0.0,0.0,42,0.00,,,0.00,Wunderground v.1.15,2013-03-12 17:00:00,
2013-03-12 12:06:00,56.0,34.9,24.48,NNW,342,0.0,2.0,45,0.00,,,0.00,Wunderground v.1.15,2013-03-12 17:06:00,
2013-03-12 12:11:00,56.5,33.1,24.48,NNW,336,1.0,1.0,41,0.00,,,0.00,Wunderground v.1.15,2013-03-12 17:11:00,
2013-03-12 12:16:00,56.4,34.2,24.48,NNW,331,4.0,5.0,43,0.00,,,0.00,Wunderground v.1.15,2013-03-12 17:16:00,
2013-03-12 12:21:00,56.2,31.5,24.48,North,9,0.0,2.0,39,0.00,,,0.00,Wunderground v.1.15,2013-03-12 17:21:00,
2013-03-12 12:26:00,56.2,31.5,24.48,NNW,340,0.0,2.0,39,0.00,,,0.00,Wunderground v.1.15,2013-03-12 17:26:00,
2013-03-12 12:31:00,56.2,30.2,24.48,NW,310,0.0,1.0,37,0.00,,,0.00,Wunderground v.1.15,2013-03-12 17:31:00,
2013-03-12 12:37:00,56.7,32.6,24.48,NW,321,0.0,3.0,40,0.00,,,0.00,Wunderground v.1.15,2013-03-12 17:37:00,
2013-03-12 12:42:00,57.3,27.7,24.48,NW,321,0.0,1.0,32,0.00,,,0.00,Wunderground v.1.15,2013-03-12 17:42:00,
2013-03-12 12:47:00,58.0,31.2,24.48,NNW,344,0.0,1.0,36,0.00,,,0.00,Wunderground v.1.15,2013-03-12 17:47:00,
2013-03-12 12:52:00,58.0,31.8,24.48,NNW,342,0.0,2.0,37,0.00,,,0.00,Wunderground v.1.15,2013-03-12 17:52:00,
2013-03-12 12:57:00,58.1,29.8,24.48,NNW,341,0.0,3.0,34,0.00,,,0.00,Wunderground v.1.15,2013-03-12 17:57:00,
2013-03-12 13:02:00,58.4,30.8,24.48,NNW,328,0.0,2.0,35,0.00,,,0.00,Wunderground v.1.15,2013-03-12 18:02:00,
2013-03-12 13:07:00,58.6,31.7,24.48,NNW,337,0.0,2.0,36,0.00,,,0.00,Wunderground v.1.15,2013-03-12 18:07:00,
2013-03-12 13:12:00,57.7,28.0,24.48,SSE,152,0.0,2.0,32,0.00,,,0.00,Wunderground v.1.15,2013-03-12 18:12:00,
2013-03-12 13:17:00,58.2,32.0,24.48,NNE,22,0.0,2.0,37,0.00,,,0.00,Wunderground v.1.15,2013-03-12 18:17:00,
2013-03-12 13:22:00,58.9,30.6,24.48,NW,325,0.0,3.0,34,0.00,,,0.00,Wunderground v.1.15,2013-03-12 18:22:00,
2013-03-12 13:27:00,58.4,31.5,24.48,NW,311,0.0,3.0,36,0.00,,,0.00,Wunderground v.1.15,2013-03-12 18:27:00,
2013-03-12 13:32:00,59.0,32.1,24.48,North,355,0.0,2.0,36,0.00,,,0.00,Wunderground v.1.15,2013-03-12 18:32:00,
2013-03-12 13:37:00,59.0,32.1,24.48,NW,315,0.0,4.0,36,0.00,,,0.00,Wunderground v.1.15,2013-03-12 18:37:00,
2013-03-12 13:42:00,59.0,31.4,24.48,ESE,113,1.0,4.0,35,0.00,,,0.00,Wunderground v.1.15,2013-03-12 18:42:00,
2013-03-12 13:47:00,59.2,31.5,24.48,ESE,102,0.0,4.0,35,0.00,,,0.00,Wunderground v.1.15,2013-03-12 18:47:00,
2013-03-12 13:52:00,60.2,30.2,24.48,SE,136,0.0,2.0,32,0.00,,,0.00,Wunderground v.1.15,2013-03-12 18:52:00,
2013-03-12 13:57:00,60.4,31.1,24.48,NNE,32,0.0,2.0,33,0.00,,,0.00,Wunderground v.1.15,2013-03-12 18:57:00,
2013-03-12 14:02:00,60.6,32.1,24.48,North,351,0.0,3.0,34,0.00,,,0.00,Wunderground v.1.15,2013-03-12 19:02:00,
2013-03-12 14:07:00,60.2,31.7,24.48,NNW,328,1.0,4.0,34,0.00,,,0.00,Wunderground v.1.15,2013-03-12 19:07:00,
2013-03-12 14:12:00,60.2,31.0,24.48,NW,323,0.0,0.0,33,0.00,,,0.00,Wunderground v.1.15,2013-03-12 19:12:00,
2013-03-12 14:17:00,60.9,32.3,24.48,East,83,0.0,3.0,34,0.00,,,0.00,Wunderground v.1.15,2013-03-12 19:17:00,
2013-03-12 14:22:00,60.7,30.6,27.51,East,99,0.0,3.0,32,0.00,,,0.00,Wunderground v.1.15,2013-03-12 19:22:00,
2013-03-12 14:27:00,60.0,31.5,27.51,NNE,28,0.0,3.0,34,0.00,,,0.00,Wunderground v.1.15,2013-03-12 19:27:00,
2013-03-12 14:32:00,59.8,30.6,27.51,NNE,19,0.0,2.0,33,0.00,,,0.00,Wunderground v.1.15,2013-03-12 19:32:00,
2013-03-12 14:37:00,59.8,29.9,27.51,NNW,333,0.0,3.0,32,0.00,,,0.00,Wunderground v.1.15,2013-03-12 19:37:00,
2013-03-12 14:42:00,59.7,32.0,27.51,North,355,1.0,2.0,35,0.00,,,0.00,Wunderground v.1.15,2013-03-12 19:42:00,
2013-03-12 14:47:00,60.1,30.9,26.68,ENE,60,0.0,3.0,33,0.00,,,0.00,Wunderground v.1.15,2013-03-12 19:47:00,
2013-03-12 14:52:00,60.5,31.2,26.68,ENE,60,0.0,1.0,33,0.00,,,0.00,Wunderground v.1.15,2013-03-12 19:52:00,
2013-03-12 14:57:00,60.3,31.8,26.68,East,97,1.0,2.0,34,0.00,,,0.00,Wunderground v.1.15,2013-03-12 19:57:00,
2013-03-12 15:02:00,60.0,31.5,26.68,NE,46,0.0,2.0,34,0.00,,,0.00,Wunderground v.1.15,2013-03-12 20:02:00,
2013-03-12 15:07:00,59.8,31.3,26.68,NNE,18,0.0,2.0,34,0.00,,,0.00,Wunderground v.1.15,2013-03-12 20:07:00,
2013-03-12 15:13:00,59.4,30.3,26.68,South,171,1.0,3.0,33,0.00,,,0.00,Wunderground v.1.15,2013-03-12 20:13:00,
2013-03-12 15:18:00,59.2,31.5,26.68,SE,127,0.0,4.0,35,0.00,,,0.00,Wunderground v.1.15,2013-03-12 20:18:00,
2013-03-12 15:23:00,59.0,31.4,26.68,ESE,118,0.0,3.0,35,0.00,,,0.00,Wunderground v.1.15,2013-03-12 20:23:00,
2013-03-12 15:28:00,59.0,30.6,26.68,NE,45,0.0,3.0,34,0.00,,,0.00,Wunderground v.1.15,2013-03-12 20:28:00,
2013-03-12 15:33:00,58.4,30.8,26.68,SE,126,1.0,3.0,35,0.00,,,0.00,Wunderground v.1.15,2013-03-12 20:33:00,
2013-03-12 15:38:00,58.5,31.6,26.68,SSE,154,3.0,4.0,36,0.00,,,0.00,Wunderground v.1.15,2013-03-12 20:38:00,
2013-03-12 15:43:00,58.6,31.7,26.68,East,85,0.0,2.0,36,0.00,,,0.00,Wunderground v.1.15,2013-03-12 20:43:00,
2013-03-12 15:48:00,58.7,31.8,26.68,NNW,341,1.0,4.0,36,0.00,,,0.00,Wunderground v.1.15,2013-03-12 20:48:00,
2013-03-12 15:53:00,58.3,31.4,26.68,East,96,0.0,2.0,36,0.00,,,0.00,Wunderground v.1.15,2013-03-12 20:53:00,
2013-03-12 15:58:00,57.8,30.3,26.68,SE,125,0.0,5.0,35,0.00,,,0.00,Wunderground v.1.15,2013-03-12 20:58:00,
2013-03-12 16:03:00,57.5,30.0,26.68,ESE,123,0.0,1.0,35,0.00,,,0.00,Wunderground v.1.15,2013-03-12 21:03:00,
2013-03-12 16:08:00,57.5,30.7,26.68,ESE,115,0.0,3.0,36,0.00,,,0.00,Wunderground v.1.15,2013-03-12 21:08:00,
2013-03-12 16:13:00,57.3,30.5,26.68,SE,129,2.0,3.0,36,0.00,,,0.00,Wunderground v.1.15,2013-03-12 21:13:00,
2013-03-12 16:18:00,57.2,30.5,26.68,ENE,69,2.0,4.0,36,0.00,,,0.00,Wunderground v.1.15,2013-03-12 21:18:00,
2013-03-12 16:23:00,56.9,30.9,26.68,NE,52,0.0,3.0,37,0.00,,,0.00,Wunderground v.1.15,2013-03-12 21:23:00,
2013-03-12 16:28:00,56.8,30.8,26.68,ENE,63,0.0,4.0,37,0.00,,,0.00,Wunderground v.1.15,2013-03-12 21:28:00,
2013-03-12 16:33:00,56.4,31.1,25.04,SE,144,0.0,4.0,38,0.00,,,0.00,Wunderground v.1.15,2013-03-12 21:33:00,
2013-03-12 16:38:00,56.3,31.0,25.67,East,85,1.0,4.0,38,0.00,,,0.00,Wunderground v.1.15,2013-03-12 21:38:00,
2013-03-12 16:43:00,56.1,30.8,25.67,SSE,148,1.0,2.0,38,0.00,,,0.00,Wunderground v.1.15,2013-03-12 21:43:00,
2013-03-12 16:48:00,55.8,30.5,25.67,ENE,75,2.0,4.0,38,0.00,,,0.00,Wunderground v.1.15,2013-03-12 21:48:00,
2013-03-12 16:53:00,55.5,30.9,25.67,NE,38,1.0,3.0,39,0.00,,,0.00,Wunderground v.1.15,2013-03-12 21:53:00,
2013-03-12 16:58:00,55.2,30.7,25.67,East,91,0.0,4.0,39,0.00,,,0.00,Wunderground v.1.15,2013-03-12 21:58:00,
2013-03-12 17:03:00,55.1,31.2,25.67,NW,322,0.0,1.0,40,0.00,,,0.00,Wunderground v.1.15,2013-03-12 22:03:00,
2013-03-12 17:08:00,54.9,31.0,25.67,SE,130,1.0,4.0,40,0.00,,,0.00,Wunderground v.1.15,2013-03-12 22:08:00,
2013-03-12 17:13:00,54.8,31.5,25.67,NNW,346,0.0,2.0,41,0.00,,,0.00,Wunderground v.1.15,2013-03-12 22:13:00,
2013-03-12 17:18:00,54.8,31.5,23.81,North,355,0.0,3.0,41,0.00,,,0.00,Wunderground v.1.15,2013-03-12 22:18:00,
2013-03-12 17:23:00,54.6,31.3,23.81,NNW,348,1.0,2.0,41,0.00,,,0.00,Wunderground v.1.15,2013-03-12 22:23:00,
2013-03-12 17:28:00,54.4,30.6,23.81,SE,135,0.0,4.0,40,0.00,,,0.00,Wunderground v.1.15,2013-03-12 22:28:00,
2013-03-12 17:33:00,54.1,31.5,23.81,NNE,26,0.0,3.0,42,0.00,,,0.00,Wunderground v.1.15,2013-03-12 22:33:00,
2013-03-12 17:38:00,53.9,31.3,24.09,NE,40,0.0,3.0,42,0.00,,,0.00,Wunderground v.1.15,2013-03-12 22:38:00,
2013-03-12 17:44:00,53.7,31.1,24.09,NE,37,0.0,1.0,42,0.00,,,0.00,Wunderground v.1.15,2013-03-12 22:44:00,
2013-03-12 17:49:00,53.6,31.0,24.09,NW,312,0.0,6.0,42,0.00,,,0.00,Wunderground v.1.15,2013-03-12 22:49:00,
2013-03-12 17:54:00,53.5,31.5,24.09,NNW,330,0.0,1.0,43,0.00,,,0.00,Wunderground v.1.15,2013-03-12 22:54:00,
2013-03-12 17:59:00,53.3,31.4,24.09,North,355,0.0,5.0,43,0.00,,,0.00,Wunderground v.1.15,2013-03-12 22:59:00,
2013-03-12 18:04:00,53.2,31.3,24.36,North,355,4.0,6.0,43,0.00,,,0.00,Wunderground v.1.15,2013-03-12 23:04:00,
2013-03-12 18:09:00,53.0,31.1,24.39,NE,34,0.0,6.0,43,0.00,,,0.00,Wunderground v.1.15,2013-03-12 23:09:00,
2013-03-12 18:14:00,52.9,31.0,24.15,NW,325,1.0,3.0,43,0.00,,,0.00,Wunderground v.1.15,2013-03-12 23:14:00,
2013-03-12 18:19:00,52.8,30.9,24.15,SSE,150,0.0,3.0,43,0.00,,,0.00,Wunderground v.1.15,2013-03-12 23:19:00,
2013-03-12 18:24:00,52.5,31.2,24.15,SE,125,1.0,5.0,44,0.00,,,0.00,Wunderground v.1.15,2013-03-12 23:24:00,
2013-03-12 18:29:00,52.3,31.0,24.21,ENE,61,0.0,5.0,44,0.00,,,0.00,Wunderground v.1.15,2013-03-12 23:29:00,
2013-03-12 18:34:00,52.1,30.8,24.22,NNW,337,0.0,2.0,44,0.00,,,0.00,Wunderground v.1.15,2013-03-12 23:34:00,
2013-03-12 18:39:00,52.0,31.3,24.15,NNW,348,0.0,2.0,45,0.00,,,0.00,Wunderground v.1.15,2013-03-12 23:39:00,
2013-03-12 18:44:00,51.8,31.1,24.15,NNW,346,0.0,3.0,45,0.00,,,0.00,Wunderground v.1.15,2013-03-12 23:44:00,
2013-03-12 18:49:00,51.6,30.9,24.15,NNW,333,0.0,4.0,45,0.00,,,0.00,Wunderground v.1.15,2013-03-12 23:49:00,
2013-03-12 18:54:00,51.3,31.2,24.15,WSW,241,0.0,0.0,46,0.00,,,0.00,Wunderground v.1.15,2013-03-12 23:54:00,
2013-03-12 18:59:00,51.1,31.0,24.15,SSW,207,0.0,1.0,46,0.00,,,0.00,Wunderground v.1.15,2013-03-12 23:59:00,
2013-03-12 19:04:00,50.8,30.7,24.15,SSW,208,0.0,0.0,46,0.00,,,0.00,Wunderground v.1.15,2013-03-13 00:04:00,
2013-03-12 19:09:00,50.5,31.0,24.25,SE,146,0.0,1.0,47,0.00,,,0.00,Wunderground v.1.15,2013-03-13 00:09:00,
2013-03-12 19:14:00,50.2,31.2,24.25,SSW,195,0.0,1.0,48,0.00,,,0.00,Wunderground v.1.15,2013-03-13 00:14:00,
2013-03-12 19:19:00,50.0,30.5,24.25,SE,129,0.0,4.0,47,0.00,,,0.00,Wunderground v.1.15,2013-03-13 00:19:00,
2013-03-12 19:24:00,49.7,30.8,24.25,ESE,102,0.0,1.0,48,0.00,,,0.00,Wunderground v.1.15,2013-03-13 00:24:00,
2013-03-12 19:29:00,49.6,30.7,24.25,ENE,65,0.0,1.0,48,0.00,,,0.00,Wunderground v.1.15,2013-03-13 00:29:00,
2013-03-12 19:34:00,49.3,30.4,24.25,NNW,340,0.0,4.0,48,0.00,,,0.00,Wunderground v.1.15,2013-03-13 00:34:00,
2013-03-12 19:39:00,49.2,30.8,24.25,North,5,0.0,4.0,49,0.00,,,0.00,Wunderground v.1.15,2013-03-13 00:39:00,
2013-03-12 19:44:00,49.1,30.7,24.25,North,351,0.0,2.0,49,0.00,,,0.00,Wunderground v.1.15,2013-03-13 00:44:00,
2013-03-12 19:49:00,48.9,30.6,24.25,North,355,1.0,5.0,49,0.00,,,0.00,Wunderground v.1.15,2013-03-13 00:49:00,
2013-03-12 19:54:00,48.7,30.4,24.25,NNW,340,0.0,2.0,49,0.00,,,0.00,Wunderground v.1.15,2013-03-13 00:54:00,
2013-03-12 19:59:00,48.6,30.3,24.25,NNW,342,0.0,4.0,49,0.00,,,0.00,Wunderground v.1.15,2013-03-13 00:59:00,
2013-03-12 20:04:00,48.4,29.6,24.25,NNW,337,1.0,3.0,48,0.00,,,0.00,Wunderground v.1.15,2013-03-13 01:04:00,
2013-03-12 20:09:00,48.1,29.3,24.25,NNW,329,1.0,6.0,48,0.00,,,0.00,Wunderground v.1.15,2013-03-13 01:09:00,
2013-03-12 20:14:00,47.9,29.1,24.25,NW,325,0.0,4.0,48,0.00,,,0.00,Wunderground v.1.15,2013-03-13 01:14:00,
2013-03-12 20:19:00,47.8,29.0,24.25,North,5,0.0,4.0,48,0.00,,,0.00,Wunderground v.1.15,2013-03-13 01:19:00,
2013-03-12 20:24:00,47.5,28.8,24.25,NNW,334,0.0,2.0,48,0.00,,,0.00,Wunderground v.1.15,2013-03-13 01:24:00,
2013-03-12 20:29:00,47.3,28.6,24.46,NNW,331,0.0,3.0,48,0.00,,,0.00,Wunderground v.1.15,2013-03-13 01:29:00,
2013-03-12 20:34:00,47.1,28.4,24.46,NNW,344,0.0,9.0,48,0.00,,,0.00,Wunderground v.1.15,2013-03-13 01:34:00,
2013-03-12 20:40:00,46.8,27.6,24.46,NNW,346,0.0,1.0,47,0.00,,,0.00,Wunderground v.1.15,2013-03-13 01:40:00,
2013-03-12 20:45:00,46.7,27.5,24.46,NNW,344,0.0,5.0,47,0.00,,,0.00,Wunderground v.1.15,2013-03-13 01:45:00,
2013-03-12 20:50:00,46.4,26.7,24.46,North,360,0.0,1.0,46,0.00,,,0.00,Wunderground v.1.15,2013-03-13 01:50:00,
2013-03-12 20:55:00,46.2,27.1,24.46,NNW,337,0.0,5.0,47,0.00,,,0.00,Wunderground v.1.15,2013-03-13 01:55:00,
2013-03-12 21:00:00,46.0,26.4,24.46,West,267,0.0,1.0,46,0.00,,,0.00,Wunderground v.1.15,2013-03-13 02:00:00,
2013-03-12 21:05:00,45.8,26.7,24.46,NNW,331,0.0,2.0,47,0.00,,,0.00,Wunderground v.1.15,2013-03-13 02:05:00,
2013-03-12 21:10:00,45.6,26.5,24.46,NNW,327,1.0,2.0,47,0.00,,,0.00,Wunderground v.1.15,2013-03-13 02:10:00,
2013-03-12 21:15:00,45.3,26.2,24.46,North,355,0.0,4.0,47,0.00,,,0.00,Wunderground v.1.15,2013-03-13 02:15:00,
2013-03-12 21:20:00,45.1,26.1,24.46,NW,324,0.0,1.0,47,0.00,,,0.00,Wunderground v.1.15,2013-03-13 02:20:00,
2013-03-12 21:25:00,45.0,26.0,24.46,NNW,338,0.0,5.0,47,0.00,,,0.00,Wunderground v.1.15,2013-03-13 02:25:00,
2013-03-12 21:30:00,44.8,25.8,24.46,NNW,331,0.0,0.0,47,0.00,,,0.00,Wunderground v.1.15,2013-03-13 02:30:00,
2013-03-12 21:35:00,44.5,25.0,24.46,NNW,339,0.0,3.0,46,0.00,,,0.00,Wunderground v.1.15,2013-03-13 02:35:00,
2013-03-12 21:40:00,44.3,24.3,24.46,NNW,340,0.0,1.0,45,0.00,,,0.00,Wunderground v.1.15,2013-03-13 02:40:00,
2013-03-12 21:45:00,44.1,24.1,24.46,NNW,341,0.0,1.0,45,0.00,,,0.00,Wunderground v.1.15,2013-03-13 02:45:00,
2013-03-12 21:50:00,44.0,24.0,24.46,NW,319,0.0,0.0,45,0.00,,,0.00,Wunderground v.1.15,2013-03-13 02:50:00,
2013-03-12 21:55:00,43.7,23.2,24.46,NNW,345,0.0,2.0,44,0.00,,,0.00,Wunderground v.1.15,2013-03-13 02:55:00,
2013-03-12 22:00:00,43.6,23.6,24.46,North,360,0.0,0.0,45,0.00,,,0.00,Wunderground v.1.15,2013-03-13 03:00:00,
2013-03-12 22:05:00,43.4,23.4,24.46,NNW,336,2.0,2.0,45,0.00,,,0.00,Wunderground v.1.15,2013-03-13 03:05:00,
2013-03-12 22:10:00,43.2,23.8,24.46,NNW,336,0.0,0.0,46,0.00,,,0.00,Wunderground v.1.15,2013-03-13 03:10:00,
2013-03-12 22:15:00,43.0,23.1,24.46,NW,326,0.0,1.0,45,0.00,,,0.00,Wunderground v.1.15,2013-03-13 03:15:00,
2013-03-12 22:20:00,42.8,22.9,24.46,NNW,329,0.0,0.0,45,0.00,,,0.00,Wunderground v.1.15,2013-03-13 03:20:00,
2013-03-12 22:25:00,42.6,23.2,24.46,NNW,329,0.0,1.0,46,0.00,,,0.00,Wunderground v.1.15,2013-03-13 03:25:00,
2013-03-12 22:30:00,42.4,23.1,24.46,NW,319,1.0,1.0,46,0.00,,,0.00,Wunderground v.1.15,2013-03-13 03:30:00,
2013-03-12 22:35:00,42.2,22.9,24.46,NW,318,0.0,1.0,46,0.00,,,0.00,Wunderground v.1.15,2013-03-13 03:35:00,
2013-03-12 22:40:00,42.0,22.7,24.46,NNW,333,0.0,1.0,46,0.00,,,0.00,Wunderground v.1.15,2013-03-13 03:40:00,
2013-03-12 22:45:00,41.8,23.0,24.46,NW,326,0.0,1.0,47,0.00,,,0.00,Wunderground v.1.15,2013-03-13 03:45:00,
2013-03-12 22:50:00,41.6,22.8,24.46,NW,319,0.0,0.0,47,0.00,,,0.00,Wunderground v.1.15,2013-03-13 03:50:00,
2013-03-12 22:55:00,41.4,22.7,24.46,NNW,344,0.0,2.0,47,0.00,,,0.00,Wunderground v.1.15,2013-03-13 03:55:00,
2013-03-12 23:00:00,41.3,22.6,24.46,NNW,344,0.0,0.0,47,0.00,,,0.00,Wunderground v.1.15,2013-03-13 04:00:00,
2013-03-12 23:05:00,41.1,22.4,24.46,NNW,344,0.0,1.0,47,0.00,,,0.00,Wunderground v.1.15,2013-03-13 04:05:00,
2013-03-12 23:10:00,41.1,22.9,24.46,NNW,344,0.0,0.0,48,0.00,,,0.00,Wunderground v.1.15,2013-03-13 04:10:00,
2013-03-12 23:15:00,40.9,22.7,24.46,NNW,344,0.0,0.0,48,0.00,,,0.00,Wunderground v.1.15,2013-03-13 04:15:00,
2013-03-12 23:20:00,40.7,22.5,24.46,NNW,344,0.0,0.0,48,0.00,,,0.00,Wunderground v.1.15,2013-03-13 04:20:00,
2013-03-12 23:25:00,40.5,22.3,24.46,NNW,338,0.0,2.0,48,0.00,,,0.00,Wunderground v.1.15,2013-03-13 04:25:00,
2013-03-12 23:30:00,40.4,22.7,24.46,NNW,338,0.0,0.0,49,0.00,,,0.00,Wunderground v.1.15,2013-03-13 04:30:00,
2013-03-12 23:35:00,40.2,22.5,24.46,NNW,338,0.0,0.0,49,0.00,,,0.00,Wunderground v.1.15,2013-03-13 04:35:00,
2013-03-12 23:40:00,40.0,22.4,24.46,NNW,337,0.0,0.0,49,0.00,,,0.00,Wunderground v.1.15,2013-03-13 04:40:00,
2013-03-12 23:45:00,39.8,22.2,24.46,NNW,338,0.0,0.0,49,0.00,,,0.00,Wunderground v.1.15,2013-03-13 04:45:00,
2013-03-12 23:50:00,39.5,22.4,24.46,NNW,337,0.0,0.0,50,0.00,,,0.00,Wunderground v.1.15,2013-03-13 04:50:00,
2013-03-12 23:55:00,39.3,22.2,24.46,NNW,337,0.0,0.0,50,0.00,,,0.00,Wunderground v.1.15,2013-03-13 04:55:00,